Time;durP1;ratioP1;P1;durP2;ratioP2;P2;SDS_P1;SDS_P2;PMS_P1;PMS_P2;Temp;Humidity;BMP_temperature;BMP_pressure;BME280_temperature;BME280_humidity;BME280_pressure;Samples;Min_cycle;Max_cycle;Signal;HPM_P1;HPM_P2
2022/09/24 00:02:01;;;;;;;27.30;24.70;;;;;;;3.79;98.29;97986.49;106681;1282;22817;-86
2022/09/24 00:04:30;;;;;;;27.10;24.30;;;;;;;3.82;97.79;97979.81;106553;1282;22545;-85
2022/09/24 00:06:58;;;;;;;28.70;26.00;;;;;;;3.88;97.74;97976.77;105987;1282;22758;-85
2022/09/24 00:09:26;;;;;;;26.80;24.40;;;;;;;3.92;97.76;97975.20;106273;1282;25659;-84
2022/09/24 00:11:54;;;;;;;27.00;24.40;;;;;;;3.93;97.30;97975.80;106329;1282;26515;-86
2022/09/24 00:14:22;;;;;;;26.00;23.60;;;;;;;3.92;97.36;97974.13;106107;1282;22703;-85
2022/09/24 00:16:50;;;;;;;25.20;22.60;;;;;;;3.88;97.08;97977.77;106169;1282;22589;-86
2022/09/24 00:19:18;;;;;;;24.60;22.00;;;;;;;3.93;97.36;97979.33;106186;1282;22601;-85
2022/09/24 00:21:46;;;;;;;24.80;22.30;;;;;;;3.97;97.57;97977.42;106306;1282;22674;-85
2022/09/24 00:27:05;;;;;;;36.40;32.60;;;;;;;3.96;96.77;97976.52;106348;1281;22552;-85
2022/09/24 00:29:34;;;;;;;35.90;32.30;;;;;;;3.93;96.89;97975.70;106384;1282;22607;-85
2022/09/24 00:32:04;;;;;;;27.70;24.80;;;;;;;3.91;96.86;97976.48;106371;1282;22568;-85
2022/09/24 00:34:33;;;;;;;26.30;23.50;;;;;;;3.92;97.42;97974.26;106299;1282;22541;-84
2022/09/24 00:37:01;;;;;;;28.20;25.60;;;;;;;3.96;97.13;97968.91;106211;1282;22562;-86
2022/09/24 00:39:29;;;;;;;27.60;24.90;;;;;;;4.02;97.52;97966.08;105527;1282;24262;-85
2022/09/24 00:41:57;;;;;;;26.20;23.80;;;;;;;4.09;97.05;97961.06;105365;1282;22547;-85
2022/09/24 00:44:43;;;;;;;32.30;24.00;;;;;;;4.13;97.07;97961.35;105405;1282;22894;-87
2022/09/24 00:47:34;;;;;;;27.40;24.60;;;;;;;4.03;96.58;97959.58;105360;1282;23935;-86
2022/09/24 00:50:14;;;;;;;26.00;23.30;;;;;;;3.94;96.81;97960.67;105383;1282;22552;-87
2022/09/24 00:52:52;;;;;;;26.30;23.80;;;;;;;3.84;96.85;97960.37;105436;1282;22581;-85
2022/09/24 00:55:22;;;;;;;25.40;23.10;;;;;;;3.80;97.08;97960.02;105295;1282;22719;-86
2022/09/24 00:57:55;;;;;;;23.20;20.90;;;;;;;3.79;97.64;97957.60;105457;1282;23977;-87
2022/09/24 01:00:23;;;;;;;24.60;22.30;;;;;;;3.78;97.99;97957.65;105431;1282;25273;-86
2022/09/24 01:03:00;;;;;;;26.70;24.10;;;;;;;3.77;97.58;97952.16;105516;1282;22551;-87
2022/09/24 01:05:28;;;;;;;26.70;24.10;;;;;;;3.77;97.76;97954.72;105485;1282;22597;-86
2022/09/24 01:07:57;;;;;;;27.50;24.80;;;;;;;3.80;97.80;97959.22;105443;1282;22552;-85
2022/09/24 01:10:47;;;;;;;25.10;22.80;;;;;;;3.82;97.67;97957.17;105393;1282;24222;-86
2022/09/24 01:13:25;;;;;;;26.40;23.80;;;;;;;3.82;97.45;97948.15;105402;1282;26709;-86
2022/09/24 01:16:02;;;;;;;25.10;22.20;;;;;;;3.89;97.70;97944.31;105426;1282;22625;-86
2022/09/24 01:18:36;;;;;;;24.10;21.90;;;;;;;3.96;97.32;97931.58;105400;1282;24435;-87
2022/09/24 01:21:30;;;;;;;25.10;22.80;;;;;;;4.03;97.69;97931.59;105365;1282;25472;-86
2022/09/24 01:24:39;;;;;;;24.80;22.40;;;;;;;4.02;97.42;97927.30;105701;1282;22762;-86
2022/09/24 01:27:21;;;;;;;24.10;21.90;;;;;;;3.90;97.37;97928.06;104798;1288;24233;-85
2022/09/24 01:30:01;;;;;;;24.30;21.90;;;;;;;3.84;98.28;97925.78;104681;1288;23993;-87
2022/09/24 01:32:41;;;;;;;22.10;19.90;;;;;;;3.82;97.82;97926.45;104929;1288;22550;-86
2022/09/24 01:35:15;;;;;;;24.20;20.50;;;;;;;3.85;97.71;97918.81;105778;1288;25469;-87
2022/09/24 01:37:50;;;;;;;20.70;18.70;;;;;;;3.87;97.47;97918.64;104799;1288;22613;-84
2022/09/24 01:40:22;;;;;;;21.30;19.20;;;;;;;3.86;97.76;97917.31;106271;1287;23231;-86
2022/09/24 01:42:52;;;;;;;24.40;22.00;;;;;;;3.77;98.10;97918.14;105023;1288;22567;-86
2022/09/24 01:45:20;;;;;;;22.90;20.50;;;;;;;3.74;98.64;97912.53;104921;1288;22902;-84
2022/09/24 01:47:48;;;;;;;21.60;19.40;;;;;;;3.74;98.44;97907.52;105006;1289;22625;-84
2022/09/24 01:50:18;;;;;;;21.90;19.30;;;;;;;3.76;98.51;97905.87;104745;1288;25397;-84
2022/09/24 01:53:03;;;;;;;23.00;20.40;;;;;;;3.76;98.55;97903.70;104780;1288;22576;-84
2022/09/24 01:55:41;;;;;;;23.10;20.80;;;;;;;3.74;98.60;97912.37;104691;1288;25280;-86
2022/09/24 01:58:20;;;;;;;24.80;22.70;;;;;;;3.70;98.63;97907.21;104814;1288;22587;-85
2022/09/24 02:00:56;;;;;;;21.70;19.60;;;;;;;3.65;98.75;97907.48;104987;1288;22559;-85
2022/09/24 02:03:30;;;;;;;19.60;17.50;;;;;;;3.63;98.63;97909.13;104967;1283;24119;-85
2022/09/24 02:06:07;;;;;;;19.60;17.70;;;;;;;3.62;98.36;97907.79;105400;1282;23260;-85
2022/09/24 02:08:43;;;;;;;21.00;19.00;;;;;;;3.62;98.38;97907.37;105376;1282;22557;-85
2022/09/24 02:11:21;;;;;;;21.10;19.20;;;;;;;3.62;98.27;97902.69;105672;1282;22655;-85
2022/09/24 02:13:59;;;;;;;22.40;20.20;;;;;;;3.61;98.69;97908.30;105410;1282;23188;-85
2022/09/24 02:16:33;;;;;;;22.50;20.50;;;;;;;3.59;98.50;97910.70;105420;1282;24420;-85
2022/09/24 02:19:07;;;;;;;22.10;20.00;;;;;;;3.57;98.65;97910.23;105411;1282;24423;-85
2022/09/24 02:21:40;;;;;;;22.60;20.30;;;;;;;3.57;98.57;97907.85;105454;1282;24421;-86
2022/09/24 02:24:28;;;;;;;19.30;17.40;;;;;;;3.59;98.33;97906.76;105653;1282;23884;-86
2022/09/24 02:26:56;;;;;;;19.10;17.10;;;;;;;3.60;98.19;97906.98;105395;1282;22706;-87
2022/09/24 02:29:24;;;;;;;19.40;17.60;;;;;;;3.57;97.92;97901.83;105387;1282;22766;-87
2022/09/24 02:31:55;;;;;;;19.90;18.00;;;;;;;3.55;98.39;97897.60;105388;1282;22680;-87
2022/09/24 02:34:31;;;;;;;20.80;18.90;;;;;;;3.50;98.60;97899.63;105380;1282;22720;-86
2022/09/24 02:37:05;;;;;;;19.60;17.70;;;;;;;3.44;99.01;97899.05;105627;1282;23682;-85
2022/09/24 02:39:35;;;;;;;19.80;17.90;;;;;;;3.42;98.68;97899.02;105394;1282;25390;-86
2022/09/24 02:42:05;;;;;;;21.00;19.00;;;;;;;3.40;98.90;97897.63;105427;1282;22548;-86
2022/09/24 02:44:35;;;;;;;18.80;16.80;;;;;;;3.39;98.74;97902.90;105502;1283;23458;-86
2022/09/24 02:47:03;;;;;;;19.80;17.90;;;;;;;3.41;98.93;97897.52;105409;1283;24358;-86
2022/09/24 02:49:32;;;;;;;20.60;18.70;;;;;;;3.45;98.43;97897.03;105537;1282;24214;-86
2022/09/24 02:52:00;;;;;;;21.00;19.20;;;;;;;3.47;98.89;97893.91;105450;1281;22703;-86
2022/09/24 02:54:28;;;;;;;19.20;17.40;;;;;;;3.49;98.91;97892.48;105376;1282;25438;-86
2022/09/24 02:56:56;;;;;;;19.80;18.00;;;;;;;3.51;98.53;97891.02;105307;1282;22583;-86
2022/09/24 02:59:25;;;;;;;18.20;16.40;;;;;;;3.52;98.45;97888.02;105459;1282;26503;-87
2022/09/24 03:01:53;;;;;;;18.50;16.80;;;;;;;3.55;98.59;97885.13;105363;1282;24294;-86
2022/09/24 03:04:21;;;;;;;18.50;16.70;;;;;;;3.58;98.43;97882.29;105301;1282;22555;-87
2022/09/24 03:06:49;;;;;;;18.40;16.80;;;;;;;3.60;98.47;97878.83;105358;1282;22734;-86
2022/09/24 03:09:17;;;;;;;21.00;18.90;;;;;;;3.62;98.39;97880.29;105349;1282;24421;-86
2022/09/24 03:11:46;;;;;;;19.00;17.20;;;;;;;3.61;98.81;97878.30;105386;1282;22858;-85
2022/09/24 03:14:14;;;;;;;24.10;21.70;;;;;;;3.63;98.66;97880.84;105381;1282;24248;-83
2022/09/24 03:16:42;;;;;;;25.10;22.70;;;;;;;3.61;98.63;97883.59;105541;1282;25001;-86
2022/09/24 03:19:10;;;;;;;21.00;19.00;;;;;;;3.55;98.43;97883.64;105393;1282;22549;-87
2022/09/24 03:21:38;;;;;;;23.60;21.70;;;;;;;3.53;98.58;97886.83;105740;1282;22629;-87
2022/09/24 03:24:06;;;;;;;21.00;19.10;;;;;;;3.48;98.86;97879.48;105499;1282;24222;-88
2022/09/24 03:26:34;;;;;;;22.60;20.60;;;;;;;3.47;98.79;97878.41;106950;1282;22728;-86
2022/09/24 03:32:18;;;;;;;22.10;20.00;;;;;;;3.43;98.90;97878.05;105390;1282;25459;-86
2022/09/24 03:34:46;;;;;;;23.60;21.50;;;;;;;3.43;99.04;97874.95;105462;1282;24422;-85
2022/09/24 03:37:14;;;;;;;20.60;18.70;;;;;;;3.43;98.97;97873.09;105492;1283;25310;-86
2022/09/24 03:39:42;;;;;;;22.30;20.40;;;;;;;3.46;99.03;97873.48;105382;1282;22552;-86
2022/09/24 03:42:10;;;;;;;21.20;19.30;;;;;;;3.49;99.11;97872.34;105461;1282;24424;-86
2022/09/24 03:44:38;;;;;;;22.70;20.70;;;;;;;3.48;99.29;97865.35;105534;1282;22719;-88
2022/09/24 03:47:07;;;;;;;21.00;18.90;;;;;;;3.44;99.20;97865.80;105342;1282;25301;-85
2022/09/24 03:49:35;;;;;;;20.90;18.80;;;;;;;3.44;99.23;97868.94;105444;1282;25686;-85
2022/09/24 03:52:02;;;;;;;18.10;16.20;;;;;;;3.45;98.93;97872.84;105408;1282;25305;-86
2022/09/24 03:54:30;;;;;;;18.70;16.70;;;;;;;3.44;99.36;97872.52;105382;1282;22680;-86
2022/09/24 03:56:58;;;;;;;19.70;18.00;;;;;;;3.46;99.29;97871.20;105909;1282;22578;-84
2022/09/24 03:59:26;;;;;;;18.70;16.90;;;;;;;3.46;99.07;97869.71;108293;1281;22609;-86
2022/09/24 04:01:54;;;;;;;18.80;17.10;;;;;;;3.44;99.00;97869.05;108243;1282;22634;-86
2022/09/24 04:04:22;;;;;;;19.70;17.90;;;;;;;3.42;99.26;97870.95;107314;1282;23622;-85
2022/09/24 04:06:51;;;;;;;16.90;15.20;;;;;;;3.41;99.09;97866.09;105445;1282;24286;-86
2022/09/24 04:09:19;;;;;;;17.80;16.20;;;;;;;3.40;98.74;97867.36;105412;1284;22701;-85
2022/09/24 04:11:52;;;;;;;18.00;16.40;;;;;;;3.44;98.89;97865.36;105400;1282;24981;-85
2022/09/24 04:14:20;;;;;;;18.40;16.50;;;;;;;3.51;99.24;97869.33;105391;1282;24437;-87
2022/09/24 04:16:48;;;;;;;20.60;18.50;;;;;;;3.55;99.20;97866.10;105337;1282;22541;-86
2022/09/24 04:19:17;;;;;;;20.50;18.70;;;;;;;3.56;99.35;97861.69;105357;1282;24171;-86
2022/09/24 04:21:45;;;;;;;22.40;20.40;;;;;;;3.53;99.01;97859.63;105409;1282;22734;-89
2022/09/24 04:24:13;;;;;;;20.80;18.90;;;;;;;3.52;99.41;97863.90;105437;1282;24317;-86
2022/09/24 04:26:41;;;;;;;18.80;17.10;;;;;;;3.58;99.52;97861.88;105379;1282;25133;-86
2022/09/24 04:29:09;;;;;;;17.60;15.90;;;;;;;3.58;99.36;97868.63;105353;1282;22641;-87
2022/09/24 04:31:39;;;;;;;19.70;18.00;;;;;;;3.60;99.14;97869.61;105386;1282;24286;-88
2022/09/24 04:34:09;;;;;;;27.20;24.80;;;;;;;3.58;98.76;97874.34;105416;1282;25646;-85
2022/09/24 04:36:37;;;;;;;32.80;30.10;;;;;;;3.57;98.94;97875.19;105422;1282;26535;-85
2022/09/24 04:39:05;;;;;;;39.60;36.10;;;;;;;3.59;99.13;97877.66;105412;1282;24327;-87
2022/09/24 04:41:33;;;;;;;37.30;33.90;;;;;;;3.62;99.24;97874.42;105397;1284;22569;-87
2022/09/24 04:44:03;;;;;;;35.70;32.30;;;;;;;3.63;99.14;97873.59;105406;1283;22556;-86
2022/09/24 04:46:33;;;;;;;26.20;23.60;;;;;;;3.68;99.37;97867.60;105451;1283;26518;-87
2022/09/24 04:49:01;;;;;;;32.10;29.20;;;;;;;3.73;99.24;97867.69;105406;1282;22627;-86
2022/09/24 04:51:34;;;;;;;31.70;28.70;;;;;;;3.79;99.22;97862.94;105358;1282;25279;-87
2022/09/24 04:54:02;;;;;;;27.60;25.10;;;;;;;3.83;99.44;97858.08;105417;1283;22543;-86
2022/09/24 04:56:31;;;;;;;25.60;22.90;;;;;;;3.85;99.37;97857.44;105367;1282;24266;-86
2022/09/24 04:58:58;;;;;;;25.60;23.00;;;;;;;3.85;99.09;97848.81;105418;1283;25361;-86
2022/09/24 05:01:26;;;;;;;21.10;19.20;;;;;;;3.81;98.80;97841.89;105392;1283;23048;-85
2022/09/24 05:03:55;;;;;;;29.90;27.00;;;;;;;3.81;98.72;97842.43;105710;1286;24137;-86
2022/09/24 05:06:23;;;;;;;26.60;24.30;;;;;;;3.83;98.81;97842.88;105667;1282;24302;-85
2022/09/24 05:08:50;;;;;;;28.30;25.70;;;;;;;3.87;99.35;97841.19;105401;1283;24106;-86
2022/09/24 05:11:19;;;;;;;28.00;25.20;;;;;;;3.88;99.51;97840.04;105455;1284;22738;-86
2022/09/24 05:13:47;;;;;;;27.30;24.70;;;;;;;3.89;99.61;97842.91;107005;1282;22541;-85
2022/09/24 05:16:15;;;;;;;26.20;23.60;;;;;;;3.95;99.71;97841.41;105689;1282;22572;-87
2022/09/24 05:18:43;;;;;;;26.40;23.40;;;;;;;4.04;99.51;97837.41;105402;1282;25336;-85
2022/09/24 05:21:11;;;;;;;25.10;22.60;;;;;;;4.13;99.63;97835.59;105414;1284;22619;-86
2022/09/24 05:23:39;;;;;;;25.40;22.80;;;;;;;4.22;99.58;97839.38;105378;1284;22991;-86
2022/09/24 05:28:54;;;;;;;28.00;25.30;;;;;;;4.42;99.73;97841.29;105350;1284;22905;-87
2022/09/24 05:31:22;;;;;;;27.00;24.30;;;;;;;4.48;99.66;97845.38;105396;1283;24348;-85
2022/09/24 05:33:50;;;;;;;28.40;25.40;;;;;;;4.54;99.50;97847.54;105382;1282;25396;-85
2022/09/24 05:36:18;;;;;;;27.30;24.40;;;;;;;4.64;99.64;97849.98;105356;1282;22637;-86
2022/09/24 05:38:46;;;;;;;28.80;26.10;;;;;;;4.74;99.52;97853.00;105358;1284;22814;-84
2022/09/24 05:41:14;;;;;;;29.40;26.60;;;;;;;4.85;99.72;97849.09;105343;1282;23984;-87
2022/09/24 05:43:42;;;;;;;31.60;28.70;;;;;;;4.96;99.64;97845.97;105407;1285;22566;-86
2022/09/24 05:46:10;;;;;;;31.30;28.20;;;;;;;5.07;99.78;97844.87;105365;1282;22566;-85
2022/09/24 05:48:38;;;;;;;34.80;31.60;;;;;;;5.20;99.70;97846.02;105375;1282;24225;-86
2022/09/24 05:51:06;;;;;;;33.60;30.20;;;;;;;5.33;99.77;97850.52;105446;1282;25353;-88
2022/09/24 05:53:34;;;;;;;35.10;31.90;;;;;;;5.48;99.93;97846.20;105369;1282;22710;-87
2022/09/24 05:56:02;;;;;;;35.10;31.70;;;;;;;5.66;100.00;97845.23;105355;1282;23219;-87
2022/09/24 05:58:30;;;;;;;31.90;29.10;;;;;;;5.81;100.00;97845.14;105362;1284;22550;-87
2022/09/24 06:01:01;;;;;;;29.60;26.90;;;;;;;5.92;100.00;97846.52;105415;1282;24220;-86
2022/09/24 06:03:30;;;;;;;29.40;26.70;;;;;;;6.06;100.00;97847.64;105342;1284;22563;-87
2022/09/24 06:06:00;;;;;;;28.80;26.10;;;;;;;6.23;100.00;97850.29;105496;1283;22854;-87
2022/09/24 06:08:31;;;;;;;30.70;27.60;;;;;;;6.38;100.00;97848.00;105417;1284;22556;-87
2022/09/24 06:11:02;;;;;;;35.60;32.10;;;;;;;6.56;100.00;97848.69;105405;1283;22560;-88
2022/09/24 06:13:39;;;;;;;35.60;31.90;;;;;;;6.71;100.00;97846.80;105465;1284;25334;-87
2022/09/24 06:16:10;;;;;;;35.00;31.60;;;;;;;6.88;100.00;97841.37;105445;1284;25438;-88
2022/09/24 06:18:41;;;;;;;31.90;29.00;;;;;;;7.05;100.00;97844.11;105440;1284;24285;-87
2022/09/24 06:21:14;;;;;;;36.00;32.40;;;;;;;7.22;100.00;97847.87;105387;1283;22579;-87
2022/09/24 06:23:44;;;;;;;64.10;55.40;;;;;;;7.38;100.00;97845.89;105458;1282;22645;-87
2022/09/24 06:26:13;;;;;;;45.00;40.50;;;;;;;7.51;100.00;97850.14;105527;1284;25261;-87
2022/09/24 06:28:41;;;;;;;36.60;33.10;;;;;;;7.62;100.00;97854.95;105465;1282;25244;-84
2022/09/24 06:31:11;;;;;;;32.90;29.70;;;;;;;7.73;100.00;97855.23;105445;1284;26514;-85
2022/09/24 06:34:01;;;;;;;29.40;26.40;;;;;;;7.86;100.00;97855.70;105442;1284;22580;-88
2022/09/24 06:37:48;;;;;;;29.30;26.20;;;;;;;8.06;100.00;97861.16;105508;1282;25494;-86
2022/09/24 06:41:04;;;;;;;35.50;31.90;;;;;;;8.25;100.00;97860.96;105992;1282;22592;-84
2022/09/24 06:44:33;;;;;;;33.50;30.20;;;;;;;8.37;100.00;97867.36;105969;1282;22713;-86
2022/09/24 06:47:19;;;;;;;30.20;27.00;;;;;;;8.45;99.94;97860.95;105962;1282;22610;-83
2022/09/24 06:49:47;;;;;;;25.90;23.50;;;;;;;8.52;99.97;97863.19;105968;1283;25267;-88
2022/09/24 06:52:15;;;;;;;26.60;24.10;;;;;;;8.59;99.81;97863.16;105979;1284;25378;-88
2022/09/24 06:54:43;;;;;;;28.50;26.00;;;;;;;8.65;100.00;97866.41;105929;1282;22587;-88
2022/09/24 06:57:12;;;;;;;27.00;24.60;;;;;;;8.71;99.78;97864.31;105874;1283;22658;-85
2022/09/24 06:59:40;;;;;;;28.30;25.70;;;;;;;8.79;99.93;97861.80;107059;1284;22656;-86
2022/09/24 07:02:09;;;;;;;29.10;26.20;;;;;;;8.90;99.90;97864.51;106180;1282;24307;-87
2022/09/24 07:04:37;;;;;;;27.40;24.70;;;;;;;9.05;100.00;97862.69;106374;1282;23980;-85
2022/09/24 07:09:52;;;;;;;31.00;28.00;;;;;;;9.36;99.93;97860.05;105710;1283;24279;-85
2022/09/24 07:12:20;;;;;;;32.60;29.50;;;;;;;9.47;99.78;97865.23;105898;1282;25478;-86
2022/09/24 07:14:48;;;;;;;32.20;29.20;;;;;;;9.56;99.98;97864.00;105881;1282;22551;-86
2022/09/24 07:17:16;;;;;;;31.10;28.10;;;;;;;9.65;99.74;97864.63;105926;1282;22563;-86
2022/09/24 07:19:44;;;;;;;31.40;28.20;;;;;;;9.80;100.00;97865.96;106316;1282;22868;-85
2022/09/24 07:22:13;;;;;;;31.80;28.50;;;;;;;9.94;99.86;97872.39;106029;1282;24291;-87
2022/09/24 07:24:41;;;;;;;37.20;33.40;;;;;;;10.04;99.83;97871.20;106233;1282;25231;-86
2022/09/24 07:27:09;;;;;;;42.60;37.40;;;;;;;10.12;99.63;97869.55;106096;1282;23408;-87
2022/09/24 07:29:37;;;;;;;24.90;22.30;;;;;;;10.21;99.67;97872.94;106056;1284;25370;-86
2022/09/24 07:32:05;;;;;;;23.90;21.60;;;;;;;10.26;99.42;97875.46;105785;1285;22733;-87
2022/09/24 07:34:33;;;;;;;21.50;18.80;;;;;;;10.37;99.81;97876.40;106003;1282;22693;-87
2022/09/24 07:37:01;;;;;;;20.40;18.30;;;;;;;10.52;99.53;97880.86;106248;1282;22573;-86
2022/09/24 07:39:30;;;;;;;18.90;17.20;;;;;;;10.68;99.78;97878.58;106043;1282;25481;-87
2022/09/24 07:42:00;;;;;;;19.20;17.30;;;;;;;10.83;99.22;97884.20;105935;1282;22571;-87
2022/09/24 07:44:28;;;;;;;19.00;17.20;;;;;;;10.93;99.11;97878.73;105904;1283;22729;-86
2022/09/24 07:46:57;;;;;;;17.00;15.20;;;;;;;11.04;99.18;97880.81;106044;1282;24271;-85
2022/09/24 07:49:25;;;;;;;16.60;15.00;;;;;;;11.12;98.54;97883.35;106041;1282;22814;-87
2022/09/24 07:51:53;;;;;;;16.40;14.50;;;;;;;11.24;98.85;97883.73;105916;1282;22624;-85
2022/09/24 07:54:21;;;;;;;15.30;13.90;;;;;;;11.35;98.34;97887.31;105928;1282;22800;-86
2022/09/24 07:56:49;;;;;;;15.50;13.60;;;;;;;11.43;97.82;97886.50;106705;1282;22565;-85
2022/09/24 07:59:19;;;;;;;15.00;13.30;;;;;;;11.44;97.95;97888.96;106064;1282;25368;-84
2022/09/24 08:01:47;;;;;;;13.50;12.20;;;;;;;11.50;97.53;97889.20;105953;1282;22975;-85
2022/09/24 08:04:15;;;;;;;15.20;13.30;;;;;;;11.52;96.28;97888.33;105982;1282;22544;-86
2022/09/24 08:06:43;;;;;;;14.50;13.10;;;;;;;11.54;96.43;97890.45;106274;1282;25455;-87
2022/09/24 08:09:15;;;;;;;14.20;12.90;;;;;;;11.57;96.23;97897.52;106134;1282;22547;-86
2022/09/24 08:11:43;;;;;;;14.90;13.10;;;;;;;11.64;96.42;97895.57;105932;1282;22567;-87
2022/09/24 08:14:11;;;;;;;15.00;13.30;;;;;;;11.72;95.90;97894.53;105937;1282;23229;-85
2022/09/24 08:16:40;;;;;;;16.00;14.50;;;;;;;11.81;95.31;97892.52;105861;1283;25322;-86
2022/09/24 08:19:12;;;;;;;14.10;12.60;;;;;;;11.86;95.14;97894.80;105838;1284;22707;-86
2022/09/24 08:21:41;;;;;;;14.80;13.10;;;;;;;11.90;94.67;97894.78;105980;1282;22573;-87
2022/09/24 08:24:09;;;;;;;15.10;13.60;;;;;;;11.91;93.39;97892.16;106002;1282;22711;-87
2022/09/24 08:26:37;;;;;;;15.30;13.70;;;;;;;11.89;92.37;97890.87;105916;1282;22559;-87
2022/09/24 08:29:05;;;;;;;17.20;15.40;;;;;;;11.91;92.70;97888.16;106069;1282;26569;-87
2022/09/24 08:31:33;;;;;;;15.80;14.30;;;;;;;11.95;91.42;97890.05;106023;1282;22580;-84
2022/09/24 08:34:01;;;;;;;16.80;14.60;;;;;;;12.00;91.62;97884.75;105816;1282;22569;-88
2022/09/24 08:36:29;;;;;;;21.50;19.30;;;;;;;12.09;91.74;97885.60;105901;1282;22581;-87
2022/09/24 08:38:57;;;;;;;17.70;16.00;;;;;;;12.26;92.06;97891.44;105998;1282;22582;-87
2022/09/24 08:41:38;;;;;;;13.70;12.40;;;;;;;12.37;90.98;97885.85;106107;1282;22564;-88
2022/09/24 08:47:42;;;;;;;12.60;11.40;;;;;;;12.61;90.57;97887.17;106443;1282;22553;-88
2022/09/24 08:50:20;;;;;;;11.90;10.40;;;;;;;12.70;89.69;97889.52;106107;1282;22541;-89
2022/09/24 08:52:52;;;;;;;11.50;10.30;;;;;;;12.76;89.89;97886.17;106059;1282;23046;-87
2022/09/24 08:55:51;;;;;;;11.30;10.10;;;;;;;12.88;89.50;97886.11;106044;1282;22828;-89
2022/09/24 08:58:43;;;;;;;12.80;11.50;;;;;;;13.00;89.57;97887.17;105087;1290;24514;-89
2022/09/24 09:01:16;;;;;;;13.90;12.10;;;;;;;13.12;89.58;97888.75;104950;1290;22642;-86
2022/09/24 09:03:55;;;;;;;12.60;10.20;;;;;;;13.21;88.10;97889.06;105111;1290;23049;-86
2022/09/24 09:06:44;;;;;;;11.80;10.60;;;;;;;13.20;87.31;97885.17;105027;1290;22570;-87
2022/09/24 09:09:44;;;;;;;11.00;9.80;;;;;;;13.19;87.02;97887.97;105269;1290;22747;-87
2022/09/24 09:12:42;;;;;;;12.20;10.90;;;;;;;13.30;87.66;97878.05;105002;1293;25450;-87
2022/09/24 09:15:10;;;;;;;13.40;10.60;;;;;;;13.39;87.05;97882.27;105071;1291;22585;-89
2022/09/24 09:17:57;;;;;;;12.00;10.00;;;;;;;13.44;85.95;97883.89;105092;1290;22668;-87
2022/09/24 09:20:32;;;;;;;11.00;8.70;;;;;;;13.53;86.17;97878.89;105134;1290;22559;-89
2022/09/24 09:23:13;;;;;;;11.30;9.40;;;;;;;13.59;84.65;97876.23;105436;1290;22601;-90
2022/09/24 09:25:50;;;;;;;12.30;10.60;;;;;;;13.62;85.09;97874.09;105316;1290;22650;-91
2022/09/24 09:28:19;;;;;;;13.60;9.40;;;;;;;13.66;84.23;97871.79;105110;1290;22710;-89
2022/09/24 09:30:59;;;;;;;11.80;10.10;;;;;;;13.73;83.08;97871.41;105126;1290;22590;-85
2022/09/24 09:34:00;;;;;;;10.80;9.60;;;;;;;13.78;83.07;97867.61;105087;1290;23516;-84
2022/09/24 09:36:59;;;;;;;12.60;10.60;;;;;;;13.92;83.58;97861.60;105883;1282;23567;-87
2022/09/24 09:39:57;;;;;;;14.00;10.50;;;;;;;13.98;82.39;97856.62;106177;1282;22703;-88
2022/09/24 09:42:35;;;;;;;14.90;11.10;;;;;;;14.09;82.30;97852.23;106152;1282;22537;-89
2022/09/24 09:45:24;;;;;;;13.40;11.20;;;;;;;14.14;80.20;97849.92;106515;1281;25251;-90
2022/09/24 09:47:56;;;;;;;13.50;10.80;;;;;;;14.16;81.40;97848.80;106170;1282;22801;-90
2022/09/24 09:50:28;;;;;;;12.30;10.00;;;;;;;14.28;80.93;97846.12;105882;1282;25255;-90
2022/09/24 09:52:56;;;;;;;14.60;10.10;;;;;;;14.33;80.44;97840.90;106087;1282;22565;-90
2022/09/24 09:55:32;;;;;;;14.80;9.90;;;;;;;14.32;79.16;97846.05;105851;1282;156516;-89
2022/09/24 09:58:15;;;;;;;15.10;12.00;;;;;;;14.32;80.08;97841.48;105883;1282;22541;-90
2022/09/24 10:00:47;;;;;;;10.50;9.40;;;;;;;14.29;79.12;97848.41;105952;1282;22572;-89
2022/09/24 10:03:34;;;;;;;11.30;9.60;;;;;;;14.30;79.77;97841.73;105881;1282;22715;-87
2022/09/24 10:06:05;;;;;;;14.50;8.80;;;;;;;14.34;79.96;97839.40;106077;1282;25539;-88
2022/09/24 10:08:33;;;;;;;16.50;9.50;;;;;;;14.40;79.91;97837.15;106070;1283;23306;-88
2022/09/24 10:11:02;;;;;;;10.40;9.30;;;;;;;14.49;79.03;97838.71;106182;1282;22887;-88
2022/09/24 10:13:31;;;;;;;13.20;8.70;;;;;;;14.51;78.10;97837.47;105963;1282;24329;-89
2022/09/24 10:16:07;;;;;;;16.50;9.10;;;;;;;14.56;78.87;97839.09;106100;1282;24267;-87
2022/09/24 10:18:42;;;;;;;12.20;8.40;;;;;;;14.58;78.78;97839.08;105898;1283;22753;-88
2022/09/24 10:21:14;;;;;;;12.20;9.30;;;;;;;14.63;78.49;97843.21;105910;1282;22806;-89
2022/09/24 10:23:48;;;;;;;9.60;8.50;;;;;;;14.63;77.88;97842.82;105885;1282;22588;-89
2022/09/24 10:26:17;;;;;;;10.80;8.40;;;;;;;14.65;76.89;97843.41;106016;1282;23312;-88
2022/09/24 10:31:40;;;;;;;9.20;8.10;;;;;;;14.72;76.89;97840.95;106745;1282;22730;-89
2022/09/24 10:34:25;;;;;;;11.50;8.90;;;;;;;14.78;75.23;97836.40;105627;1282;22624;-90
2022/09/24 10:37:02;;;;;;;10.00;7.60;;;;;;;14.84;74.45;97835.63;105584;1282;22597;-90
2022/09/24 10:39:37;;;;;;;9.30;6.50;;;;;;;14.88;74.92;97833.86;105704;1282;22545;-90
2022/09/24 10:42:06;;;;;;;8.90;6.30;;;;;;;14.91;75.16;97833.58;105473;1282;22566;-88
2022/09/24 10:44:36;;;;;;;7.40;6.70;;;;;;;14.98;74.28;97833.60;105707;1282;22549;-87
2022/09/24 10:47:50;;;;;;;14.00;9.80;;;;;;;15.05;74.93;97828.64;105740;1282;25367;-89
2022/09/24 10:50:43;;;;;;;16.50;13.30;;;;;;;15.16;74.56;97831.10;105641;1282;23950;-88
2022/09/24 10:54:01;;;;;;;15.60;9.50;;;;;;;15.30;74.45;97828.14;105676;1282;25465;-88
2022/09/24 10:56:39;;;;;;;10.30;8.40;;;;;;;15.40;74.31;97826.41;105920;1282;22544;-88
2022/09/24 10:59:42;;;;;;;10.40;8.80;;;;;;;15.47;73.83;97825.48;106046;1282;22578;-88
2022/09/24 11:02:55;;;;;;;9.60;8.60;;;;;;;15.56;74.09;97823.34;105517;1282;22562;-92
2022/09/24 11:05:29;;;;;;;8.80;7.70;;;;;;;15.58;72.98;97828.01;105387;1282;22569;-89
2022/09/24 11:08:06;;;;;;;8.90;7.70;;;;;;;15.54;72.25;97828.54;105534;1282;22675;-88
2022/09/24 11:10:52;;;;;;;9.20;7.10;;;;;;;15.46;71.81;97827.58;105448;1282;22664;-87
2022/09/24 11:13:33;;;;;;;10.40;7.30;;;;;;;15.49;72.85;97828.29;105442;1282;22716;-81
2022/09/24 11:16:37;;;;;;;7.40;6.70;;;;;;;15.57;72.76;97825.63;105618;1282;25364;-81
2022/09/24 11:19:19;;;;;;;8.50;6.90;;;;;;;15.59;70.66;97816.31;105599;1282;22618;-81
2022/09/24 11:22:09;;;;;;;7.30;6.20;;;;;;;15.57;70.72;97810.59;105757;1282;22858;-80
2022/09/24 11:24:46;;;;;;;7.20;5.80;;;;;;;15.62;71.28;97809.06;105585;1282;22541;-81
2022/09/24 11:27:51;;;;;;;7.60;6.00;;;;;;;15.71;70.33;97811.19;105368;1282;22800;-80
2022/09/24 11:30:23;;;;;;;7.40;6.00;;;;;;;15.80;70.75;97805.74;105534;1282;25354;-82
2022/09/24 11:33:17;;;;;;;9.80;6.40;;;;;;;15.92;69.91;97805.77;105504;1282;24290;-82
2022/09/24 11:36:27;;;;;;;8.00;5.80;;;;;;;16.03;70.07;97807.08;105625;1282;22724;-81
2022/09/24 11:39:04;;;;;;;8.00;5.20;;;;;;;16.06;68.31;97804.69;105490;1282;23940;-83
2022/09/24 11:41:56;;;;;;;6.70;5.60;;;;;;;16.04;67.38;97802.77;105625;1282;25253;-83
2022/09/24 11:45:11;;;;;;;8.40;5.40;;;;;;;16.06;68.75;97799.09;105633;1282;23937;-82
2022/09/24 11:48:21;;;;;;;7.80;4.70;;;;;;;16.13;68.77;97802.62;104880;1288;22563;-82
2022/09/24 11:51:03;;;;;;;6.70;5.00;;;;;;;16.15;68.17;97805.70;104711;1288;23775;-82
2022/09/24 11:53:39;;;;;;;7.60;5.60;;;;;;;16.21;66.91;97806.66;104887;1288;25373;-82
2022/09/24 11:56:32;;;;;;;6.60;4.30;;;;;;;16.24;67.23;97809.80;104884;1288;22769;-82
2022/09/24 11:59:20;;;;;;;5.10;4.00;;;;;;;16.34;67.42;97806.34;104888;1288;24330;-82
2022/09/24 12:02:09;;;;;;;6.20;3.60;;;;;;;16.55;66.98;97799.14;105028;1288;25342;-82
2022/09/24 12:04:49;;;;;;;4.50;3.30;;;;;;;16.85;66.22;97798.31;104841;1288;25429;-82
2022/09/24 12:07:28;;;;;;;4.60;3.30;;;;;;;17.30;65.50;97793.59;104861;1288;22679;-82
2022/09/24 12:10:28;;;;;;;4.50;3.60;;;;;;;17.86;65.48;97791.25;105177;1288;24261;-82